Wildwood, Pennsylvania
Current Conditions -  °F | °C
As of 6:55 AM on Saturday 01 Nov 2014 (Local Time) from KBTP Reporting Station
Overcast Overcast  
Wind Chill: 36°   Ceiling: 1600
Heat Index: 39°   Visibility: 8mi
Dew Point: 36°   Wind: 5mph
Humidity: 87%   Direction: 360°N
Pressure: 29.97"   Gusts: NA
Location:  40.59°N, 79.97°W
Report Text: KBTP 011055Z AUTO 36004KT 8SM SCT008 BKN016 OVC027 04/02 A2997 RMK AO1
Loading
Personal Weather Stations






























Interactive Weather Map
Tropical Storm Tracking
New forecast layout! Learn more

10-Day Weather Forecast

Advertisements
Track Severe Weather on mobile